Aérodrome :
LOGIN :

S'inscrire | Disclaimer

   EN    FR    IT 

 










Légende :    VFR   VFR Marginal   IFR   IFR Intensif   IFR Très Intensif
Visi : 
Plafond : 
>= 8 km
>= 3000ft
5 à 8 km
1000 à 3000 ft
1500m à 5 km
500 à 1000 ft
800 à 1500m
200 à 500 ft
< 800m
< 200 ft
Symboles :   Orages  Brouillard  Fortes neiges  Fortes précipitations  Vent > 20 kt
SIGMETs :   Divers  Orages  Givrage  Turbulence  Onde Orograph.  Cendres Volcan.






- Altitude de l'aérodrome : 49 ft
- Code IATA : AOI


LIPY - Ancona Falconara

DERNIER METAR :
  • 011150Z AUTO VRB01KT 9999 FEW028/// BKN047/// BKN100/// 10/08 Q1015

METARs EXPIRÉS :
  • 011120Z AUTO VRB01KT 9999 BKN028/// BKN046/// 09/08 Q1015
  • 011050Z AUTO VRB02KT 9999 OVC027/// 09/08 Q1016
  • 011020Z AUTO VRB02KT 9999 OVC030/// 08/07 Q1016
  • 010950Z AUTO 21002KT 9999 OVC029/// 08/07 Q1017
  • 010920Z AUTO 22004KT 9999 OVC028/// 07/07 Q1017

TAF TAF LIPY
Valide du 01 à 12h jusqu'au 02 à 12h UTC


011100Z 0112/0212 16008KT 9999 SCT025
TEMPO 0120/0206 4000 RA



MET'MAP, la Météo Aéronautique d'un coup d'oeil ! - Copyright ORBIFLY Décembre 2007 - Disclaimer

ORBIFLY MET'MAP TEAM :

Programmation & Développement : Alexandra Zaïnal
Sur une idée originale de : Baudouin d'Aumeries
Assistance à la programmation : Marc-Olivier Méhu
Soutien technique & logistique : Manuel Goepfert

Contact : metmap@orbifly.com




SOURCES & CREDITS :

   NOAA